TAF LEAL
LEAL 081700Z 0818/0918 VRB04KT 9999 SCT050 TX18/0912Z TN10/0906Z BECMG 0822/0824 28014KT TEMPO 0904/0908 VRB04KT=
METAR LEAL
LEAL 082200Z 31008KT 9999 FEW016 12/03 Q1018 NOSIG=
LEAL 082130Z 32006KT 9999 FEW016 11/04 Q1018 NOSIG=
LEAL 082100Z VRB02KT CAVOK 08/03 Q1017 NOSIG=
LEAL 082030Z VRB01KT CAVOK 09/02 Q1017 NOSIG=
LEAL 082000Z VRB02KT CAVOK 09/02 Q1017 NOSIG=
WC LEAL
WS LEAL
WV LEAL